ΕΜΥ, Εθνική Μετεωρολογική Υπηρεσία - Δελτία Καιρού, Προγνώσεις

ΑΕΡΟΝΑΥΤΙΛΙΑ

GREEK AIRPORTS CODES

LGMG 301500Z 30012KT 9999 FEW025 26/07 Q1008=

EUROPEAN AIRPORTS CODES

EKCH 010150Z AUTO 09011KT 9999 OVC029/// 14/12 Q1013 NOSIG=